Time;durP1;ratioP1;P1;durP2;ratioP2;P2;SDS_P1;SDS_P2;PMS_P1;PMS_P2;Temp;Humidity;BMP_temperature;BMP_pressure;BME280_temperature;BME280_humidity;BME280_pressure;Samples;Min_cycle;Max_cycle;Signal;HPM_P1;HPM_P2
2022/01/18 00:02:10;;;;;;;4.78;2.83;;;;;;;13.00;81.86;101695.53;5113506;27;20046;-73
2022/01/18 00:04:38;;;;;;;3.95;2.45;;;;;;;12.99;82.09;101702.63;5127104;27;20043;-72
2022/01/18 00:07:06;;;;;;;7.70;3.38;;;;;;;13.04;82.31;101715.97;5110040;27;20046;-73
2022/01/18 00:09:38;;;;;;;9.10;3.33;;;;;;;13.05;82.38;101720.41;5121936;27;20066;-73
2022/01/18 00:12:30;;;;;;;7.22;3.40;;;;;;;13.08;82.49;101715.16;5111579;27;20050;-73
2022/01/18 00:15:17;;;;;;;8.98;5.65;;;;;;;13.07;82.54;101711.59;5111529;27;20043;-72
2022/01/18 00:17:54;;;;;;;14.63;9.57;;;;;;;13.07;82.25;101711.59;5121279;27;20505;-72
2022/01/18 00:20:32;;;;;;;9.63;5.82;;;;;;;13.09;82.56;101711.63;5111190;27;20040;-75
2022/01/18 00:23:00;;;;;;;9.13;4.70;;;;;;;13.12;82.34;101701.13;5110812;27;20040;-72
2022/01/18 00:25:29;;;;;;;5.60;3.30;;;;;;;13.14;82.14;101692.34;5109335;27;20039;-72
2022/01/18 00:27:59;;;;;;;12.65;3.88;;;;;;;13.12;82.17;101688.78;5115107;27;20038;-73
2022/01/18 00:30:50;;;;;;;5.68;2.50;;;;;;;13.09;82.33;101679.81;5099056;27;20464;-72
2022/01/18 00:33:21;;;;;;;7.68;3.72;;;;;;;13.05;82.45;101678.88;5114963;27;20047;-72
2022/01/18 00:35:57;;;;;;;6.72;2.22;;;;;;;13.05;82.46;101678.00;5130849;27;20067;-72
2022/01/18 00:38:31;;;;;;;7.70;4.22;;;;;;;13.02;82.68;101672.59;5127139;27;20092;-75
2022/01/18 00:40:59;;;;;;;;;;;;;;;12.98;82.69;101666.38;5106390;27;20055;-72
2022/01/18 00:43:28;;;;;;;10.30;4.35;;;;;;;12.98;82.78;101669.03;5109360;27;20022;-72
2022/01/18 00:45:55;;;;;;;13.77;7.13;;;;;;;12.96;82.74;101664.53;5110096;27;20044;-72
2022/01/18 00:48:23;;;;;;;33.90;28.50;;;;;;;12.94;82.75;101663.59;5110510;27;20108;-72
2022/01/18 00:50:52;;;;;;;20.05;16.73;;;;;;;12.89;83.07;101665.28;5111125;27;20512;-73
2022/01/18 00:53:20;;;;;;;8.02;4.10;;;;;;;12.91;83.18;101650.31;5111721;27;20046;-72
2022/01/18 00:55:53;;;;;;;9.02;4.60;;;;;;;12.93;82.95;101645.94;5109982;27;20047;-72
2022/01/18 00:58:21;;;;;;;8.10;4.50;;;;;;;12.90;82.67;101641.47;5108554;27;20096;-72
2022/01/18 01:00:51;;;;;;;21.48;14.13;;;;;;;12.86;82.68;101638.72;5121416;27;20108;-73
2022/01/18 01:03:19;;;;;;;9.75;5.20;;;;;;;12.83;82.67;101638.66;5127666;27;20118;-72
2022/01/18 01:05:46;;;;;;;16.65;9.00;;;;;;;12.81;82.42;101641.25;5129276;27;20106;-73
2022/01/18 01:08:14;;;;;;;8.48;4.47;;;;;;;12.73;82.33;101635.78;5098025;27;20043;-73
2022/01/18 01:10:42;;;;;;;7.22;4.13;;;;;;;12.63;82.34;101638.22;5110076;27;20108;-73
2022/01/18 01:13:12;;;;;;;9.65;4.80;;;;;;;12.60;82.27;101644.34;5125918;27;20220;-73
2022/01/18 01:15:58;;;;;;;9.15;3.65;;;;;;;12.60;82.39;101647.00;5111084;27;20066;-73
2022/01/18 01:18:39;;;;;;;5.22;2.75;;;;;;;12.61;82.26;101645.25;5110722;27;20461;-73
2022/01/18 01:32:40;;;;;;;7.22;3.63;;;;;;;12.37;82.35;101632.38;5114707;27;20039;-73
2022/01/18 01:35:13;;;;;;;7.45;4.30;;;;;;;12.35;82.30;101627.03;5126387;27;20112;-73
2022/01/18 01:43:21;;;;;;;8.73;4.20;;;;;;;12.31;81.89;101637.53;5118493;27;20515;-73
2022/01/18 01:45:49;;;;;;;7.45;3.97;;;;;;;12.29;81.75;101633.94;5128886;27;20043;-72
2022/01/18 01:48:18;;;;;;;8.85;3.85;;;;;;;12.28;81.53;101625.09;5116605;27;20163;-73
2022/01/18 01:50:50;;;;;;;7.00;3.55;;;;;;;12.28;81.32;101632.16;5091718;27;20388;-71
2022/01/18 01:53:21;;;;;;;8.13;4.20;;;;;;;12.29;80.99;101637.50;5113863;27;20035;-73
2022/01/18 01:55:49;;;;;;;10.07;3.80;;;;;;;12.32;80.71;101628.75;5115663;27;20050;-73
2022/01/18 01:58:18;;;;;;;7.85;2.95;;;;;;;12.33;80.50;101628.78;5129399;27;20043;-71
2022/01/18 02:00:49;;;;;;;7.10;2.38;;;;;;;12.32;80.27;101618.16;5128467;27;20073;-72
2022/01/18 02:03:17;;;;;;;3.78;2.47;;;;;;;12.25;80.19;101613.56;5125117;27;20542;-72
2022/01/18 02:05:45;;;;;;;3.95;2.00;;;;;;;12.16;80.22;101619.53;5112411;27;20071;-72
2022/01/18 02:08:16;;;;;;;6.10;2.28;;;;;;;12.10;80.24;101623.81;5126927;27;20122;-72
2022/01/18 02:10:45;;;;;;;8.80;3.00;;;;;;;12.09;80.21;101629.94;5108749;27;20088;-72
2022/01/18 02:13:13;;;;;;;5.65;2.83;;;;;;;12.01;80.18;101642.13;5123775;27;20055;-73
2022/01/18 02:15:48;;;;;;;9.15;4.60;;;;;;;12.04;80.20;101635.13;5126535;28;20092;-72
2022/01/18 02:23:44;;;;;;;4.07;2.00;;;;;;;11.92;79.89;101633.09;5109993;27;20063;-72
2022/01/18 02:26:11;;;;;;;6.20;2.33;;;;;;;11.85;79.90;101630.28;5109639;27;20043;-73
2022/01/18 02:28:39;;;;;;;8.57;2.28;;;;;;;11.84;79.92;101624.09;5108619;27;20097;-72
2022/01/18 02:31:07;;;;;;;6.75;2.88;;;;;;;11.87;79.67;101623.28;5112974;27;20044;-74
2022/01/18 02:33:34;;;;;;;7.43;2.50;;;;;;;11.79;79.50;101608.97;5118228;27;22146;-72
2022/01/18 02:36:09;;;;;;;6.07;2.20;;;;;;;11.69;79.34;101613.09;5108947;27;20092;-72
2022/01/18 02:38:37;;;;;;;6.45;2.45;;;;;;;11.65;79.28;101610.34;5111511;27;20160;-72
2022/01/18 02:41:05;;;;;;;7.07;2.50;;;;;;;11.67;79.07;101601.59;5104392;27;20115;-72
2022/01/18 02:43:50;;;;;;;8.32;2.53;;;;;;;11.78;78.45;101593.94;5115835;27;20476;-72
2022/01/18 02:46:18;;;;;;;3.75;1.90;;;;;;;12.00;77.12;101590.97;5124157;27;20442;-74
2022/01/18 02:48:46;;;;;;;6.03;2.20;;;;;;;12.22;75.28;101605.53;5142285;27;20088;-72
2022/01/18 02:51:15;;;;;;;3.10;1.60;;;;;;;12.33;74.37;101609.34;5123669;27;20051;-72
2022/01/18 02:53:58;;;;;;;4.68;1.80;;;;;;;12.36;73.96;101598.81;5109905;27;20064;-72
2022/01/18 02:56:27;;;;;;;5.05;1.98;;;;;;;12.32;73.63;101603.16;5094306;27;20047;-72
2022/01/18 02:59:01;;;;;;;4.35;2.10;;;;;;;12.25;73.75;101601.22;5117546;27;20504;-72
2022/01/18 03:04:15;;;;;;;5.03;2.17;;;;;;;12.04;73.98;101591.91;5112392;27;20058;-72
2022/01/18 03:06:44;;;;;;;7.43;2.22;;;;;;;12.06;73.82;101593.75;5140201;27;20487;-74
2022/01/18 03:09:12;;;;;;;3.80;1.88;;;;;;;12.08;73.65;101577.91;5127445;27;20074;-73
2022/01/18 03:11:40;;;;;;;7.15;2.05;;;;;;;12.04;73.30;101583.97;5112330;27;20096;-73
2022/01/18 03:14:08;;;;;;;6.03;1.85;;;;;;;12.00;73.37;101582.13;5128218;27;20085;-74
2022/01/18 03:16:36;;;;;;;3.60;1.92;;;;;;;11.97;73.24;101588.22;5145887;27;20510;-74
2022/01/18 03:19:04;;;;;;;4.28;1.77;;;;;;;11.93;72.82;101594.31;5160288;27;20081;-74
2022/01/18 03:21:31;;;;;;;5.18;2.20;;;;;;;11.94;72.88;101589.06;5127501;27;20092;-74
2022/01/18 03:24:14;;;;;;;5.53;2.30;;;;;;;11.90;72.83;101594.22;5127787;27;20048;-74
2022/01/18 03:29:27;;;;;;;5.03;2.17;;;;;;;11.82;72.74;101599.34;5126526;27;20070;-74
2022/01/18 03:31:55;;;;;;;5.80;2.80;;;;;;;11.79;72.70;101595.72;5131188;27;20046;-74
2022/01/18 03:34:22;;;;;;;10.57;3.10;;;;;;;11.79;72.68;101593.97;5112818;27;20048;-74
2022/01/18 03:36:50;;;;;;;4.60;2.47;;;;;;;11.78;72.52;101597.47;5112256;27;20109;-74
2022/01/18 03:39:19;;;;;;;6.03;2.97;;;;;;;11.78;72.36;101601.88;5126854;27;20052;-74
2022/01/18 03:41:53;;;;;;;8.20;3.08;;;;;;;11.71;72.37;101595.50;5128521;27;20036;-74
2022/01/18 03:44:22;;;;;;;7.60;3.23;;;;;;;11.66;72.38;101590.97;5128085;27;20050;-74
2022/01/18 03:46:49;;;;;;;5.50;2.65;;;;;;;11.61;72.42;101577.66;5111497;27;20037;-74
2022/01/18 03:49:19;;;;;;;8.35;2.97;;;;;;;11.59;72.26;101582.88;5112482;27;20080;-74
2022/01/18 03:51:47;;;;;;;8.82;5.82;;;;;;;11.56;72.30;101580.16;5110585;27;20483;-74
2022/01/18 03:54:21;;;;;;;6.35;2.08;;;;;;;11.57;72.26;101578.41;5111792;27;20401;-73
2022/01/18 03:56:50;;;;;;;6.20;2.75;;;;;;;11.58;72.01;101575.81;5111117;27;20612;-74
2022/01/18 03:59:17;;;;;;;7.57;2.20;;;;;;;11.54;72.02;101567.78;5111956;27;20454;-74
2022/01/18 04:01:45;;;;;;;7.60;2.20;;;;;;;11.46;72.03;101571.97;5111406;27;20112;-73
2022/01/18 04:04:13;;;;;;;7.03;2.78;;;;;;;11.42;72.14;101573.63;5111368;27;20404;-74
2022/01/18 04:06:40;;;;;;;6.85;3.00;;;;;;;11.37;72.17;101566.44;5109696;27;20085;-74
2022/01/18 04:09:08;;;;;;;4.85;2.67;;;;;;;11.34;72.25;101569.91;5113240;27;20046;-74
2022/01/18 04:11:35;;;;;;;6.00;3.10;;;;;;;11.31;72.37;101577.75;5118615;27;20574;-75
2022/01/18 04:14:04;;;;;;;6.05;3.05;;;;;;;11.30;71.83;101580.34;5130140;27;20035;-74
2022/01/18 04:16:41;;;;;;;6.82;2.90;;;;;;;11.29;71.82;101589.16;5115744;27;20109;-74
2022/01/18 04:19:34;;;;;;;6.15;2.63;;;;;;;11.21;71.58;101581.03;5113896;27;20726;-74
2022/01/18 04:27:49;;;;;;;19.92;14.27;;;;;;;10.87;72.42;101591.53;5100305;27;20564;-74
2022/01/18 04:30:18;;;;;;;19.55;15.27;;;;;;;10.78;72.87;101593.06;5110050;27;20052;-74
2022/01/18 04:32:46;;;;;;;20.08;16.85;;;;;;;10.75;72.55;101602.66;5108440;27;20131;-73
2022/01/18 04:35:14;;;;;;;15.25;11.98;;;;;;;10.76;72.60;101609.75;5110790;27;20108;-74
2022/01/18 04:37:42;;;;;;;9.32;5.18;;;;;;;10.78;72.54;101610.66;5109182;27;20098;-74
2022/01/18 04:40:14;;;;;;;8.70;3.47;;;;;;;10.79;72.48;101609.81;5114535;27;20044;-74
2022/01/18 04:43:01;;;;;;;7.90;3.00;;;;;;;10.75;72.71;101614.13;5127249;27;20047;-74
2022/01/18 04:48:32;;;;;;;6.53;2.88;;;;;;;10.72;73.09;101613.13;5120602;27;20059;-72
2022/01/18 04:51:00;;;;;;;;;;;;;;;10.73;72.92;101607.91;5109237;27;20046;-74
2022/01/18 04:53:30;;;;;;;6.72;2.83;;;;;;;10.70;73.09;101597.22;5116524;27;19920;-74
2022/01/18 04:56:00;;;;;;;5.13;2.65;;;;;;;10.72;73.10;101607.84;5128846;27;20049;-74
2022/01/18 04:58:29;;;;;;;6.22;3.00;;;;;;;10.78;72.91;101610.66;5123680;27;20503;-74
2022/01/18 05:01:00;;;;;;;5.63;2.72;;;;;;;10.89;72.72;101613.63;5125672;27;20056;-74
2022/01/18 05:03:29;;;;;;;5.47;3.33;;;;;;;10.97;72.55;101601.50;5115979;27;20043;-74
2022/01/18 05:05:59;;;;;;;7.07;2.80;;;;;;;11.00;72.38;101607.78;5116169;27;20059;-74
2022/01/18 05:08:27;;;;;;;7.22;3.20;;;;;;;10.98;72.27;101598.91;5112318;27;20046;-74
2022/01/18 05:10:57;;;;;;;4.32;2.85;;;;;;;11.03;72.01;101599.91;5100073;27;20059;-75
2022/01/18 05:16:39;;;;;;;17.33;11.75;;;;;;;11.09;71.57;101602.72;5114671;27;20043;-74
2022/01/18 05:19:14;;;;;;;10.25;7.07;;;;;;;11.11;71.50;101602.75;5112049;27;20577;-74
2022/01/18 05:24:30;;;;;;;12.43;10.55;;;;;;;11.02;71.96;101591.97;5111908;27;20039;-74
2022/01/18 05:26:59;;;;;;;12.93;8.57;;;;;;;10.99;71.94;101597.16;5117390;27;20032;-74
2022/01/18 05:29:27;;;;;;;14.30;8.50;;;;;;;11.02;72.22;101600.78;5125553;27;20433;-75
2022/01/18 05:31:57;;;;;;;9.30;6.30;;;;;;;11.07;72.21;101604.44;5110519;27;20139;-74
2022/01/18 05:34:25;;;;;;;10.00;5.88;;;;;;;11.12;72.03;101605.47;5109058;27;20167;-74
2022/01/18 05:36:54;;;;;;;11.25;5.47;;;;;;;11.17;71.90;101601.19;5108246;27;20052;-74
2022/01/18 05:39:21;;;;;;;7.72;4.47;;;;;;;11.19;71.92;101602.13;5109289;27;20123;-74
2022/01/18 05:41:49;;;;;;;12.07;4.93;;;;;;;11.25;71.81;101596.09;5100947;27;20043;-74
2022/01/18 05:44:16;;;;;;;12.60;7.68;;;;;;;11.26;71.70;101602.28;5124400;27;20117;-75
2022/01/18 05:46:44;;;;;;;11.63;7.43;;;;;;;11.26;71.70;101597.91;5089557;27;20093;-75
2022/01/18 05:49:13;;;;;;;11.30;6.32;;;;;;;11.34;71.61;101588.44;5123837;27;20089;-75
2022/01/18 05:51:41;;;;;;;12.10;6.70;;;;;;;11.39;71.50;101583.25;5103619;27;20047;-74
2022/01/18 05:54:09;;;;;;;12.38;7.03;;;;;;;11.39;71.18;101581.50;5129202;27;20040;-75
2022/01/18 05:56:37;;;;;;;11.15;7.35;;;;;;;11.43;71.12;101582.44;5128974;27;20093;-74
2022/01/18 05:59:06;;;;;;;14.10;8.60;;;;;;;11.48;71.14;101580.84;5114187;27;20123;-74
2022/01/18 06:01:45;;;;;;;11.07;7.47;;;;;;;11.54;70.86;101578.34;5107812;27;20052;-75
2022/01/18 06:06:50;;;;;;;13.80;8.38;;;;;;;11.51;70.76;101575.63;5126542;28;20122;-74
2022/01/18 06:07:04;;;;;;;10.32;7.63;;;;;;;11.47;70.78;101574.66;5103180;27;20047;-74
2022/01/18 06:09:32;;;;;;;9.40;6.50;;;;;;;11.41;70.89;101566.59;5129594;27;20039;-74
2022/01/18 06:12:00;;;;;;;13.30;6.60;;;;;;;11.40;70.86;101578.00;5108883;27;20047;-74
2022/01/18 06:14:27;;;;;;;8.15;5.90;;;;;;;11.40;70.64;101578.00;5121577;27;20044;-74
2022/01/18 06:16:55;;;;;;;10.32;7.10;;;;;;;11.49;71.11;101572.03;5111632;27;20061;-74
2022/01/18 06:19:24;;;;;;;10.40;7.75;;;;;;;11.83;71.20;101572.03;5108406;27;20043;-74
2022/01/18 06:21:52;;;;;;;10.82;7.50;;;;;;;12.20;71.26;101576.41;5109063;27;20063;-74
2022/01/18 06:24:20;;;;;;;11.68;8.60;;;;;;;12.56;71.08;101573.66;5107501;27;20105;-75
2022/01/18 06:26:47;;;;;;;12.48;9.25;;;;;;;12.89;70.71;101573.41;5109775;27;20040;-74
2022/01/18 06:29:15;;;;;;;13.38;8.82;;;;;;;13.18;70.26;101575.75;5122584;27;20043;-73
2022/01/18 06:31:42;;;;;;;9.02;5.13;;;;;;;13.37;70.37;101575.22;5156547;27;20402;-74
2022/01/18 06:34:11;;;;;;;8.30;5.28;;;;;;;13.33;70.07;101582.22;5116027;27;20491;-74
2022/01/18 06:36:40;;;;;;;8.73;5.30;;;;;;;13.45;69.98;101589.50;5112877;28;20063;-75
2022/01/18 06:39:08;;;;;;;9.77;6.40;;;;;;;13.73;69.97;101590.84;5111894;28;20039;-74
2022/01/18 06:41:36;;;;;;;13.52;7.95;;;;;;;13.89;69.33;101595.53;5111794;27;20048;-75
2022/01/18 06:44:04;;;;;;;11.15;6.10;;;;;;;14.17;69.49;101600.38;5119406;27;20502;-75
2022/01/18 06:46:31;;;;;;;10.45;5.00;;;;;;;14.54;69.30;101592.94;5115706;27;20044;-74
2022/01/18 06:48:59;;;;;;;11.10;5.32;;;;;;;14.96;68.95;101596.13;5114105;27;20112;-75
2022/01/18 06:51:27;;;;;;;9.80;5.18;;;;;;;15.32;68.88;101600.91;5112618;27;20036;-75
2022/01/18 06:53:56;;;;;;;11.90;5.47;;;;;;;15.61;68.81;101593.22;5112466;27;20040;-74
2022/01/18 06:56:26;;;;;;;10.65;5.85;;;;;;;15.93;68.78;101583.72;5111594;27;20050;-75
2022/01/18 06:58:54;;;;;;;10.73;7.85;;;;;;;16.29;67.84;101591.03;5116375;27;20044;-74
2022/01/18 07:01:23;;;;;;;3.85;2.42;;;;;;;16.71;65.33;101592.16;5113458;27;20122;-74
2022/01/18 07:03:50;;;;;;;9.13;4.43;;;;;;;16.95;64.13;101594.00;5128487;27;20031;-76
2022/01/18 07:06:18;;;;;;;3.75;2.03;;;;;;;17.32;64.62;101587.88;5111598;27;20156;-75
2022/01/18 07:08:46;;;;;;;4.65;2.08;;;;;;;17.74;63.87;101592.34;5144759;27;20047;-75
2022/01/18 07:11:16;;;;;;;6.05;1.85;;;;;;;18.03;60.57;101602.13;5111441;27;20056;-75
2022/01/18 07:13:44;;;;;;;4.28;1.80;;;;;;;18.21;59.25;101599.41;5113727;27;20040;-75
2022/01/18 07:16:12;;;;;;;5.95;1.65;;;;;;;18.27;58.86;101607.41;5114119;27;20081;-75
2022/01/18 07:18:39;;;;;;;3.92;1.40;;;;;;;18.39;55.61;101609.16;5134668;27;20062;-75
2022/01/18 07:21:09;;;;;;;4.10;1.55;;;;;;;18.65;54.93;101624.28;5114914;27;20515;-75
2022/01/18 07:23:36;;;;;;;3.45;1.60;;;;;;;18.80;52.55;101628.69;5111482;27;20039;-75
2022/01/18 07:26:04;;;;;;;5.03;1.33;;;;;;;19.01;52.03;101625.00;5112895;27;20120;-75
2022/01/18 07:28:33;;;;;;;2.63;1.65;;;;;;;19.39;52.70;101623.00;5116978;27;20120;-75
2022/01/18 07:31:01;;;;;;;3.90;1.20;;;;;;;19.64;52.38;101613.00;5112054;27;20540;-75
2022/01/18 07:33:28;;;;;;;2.47;1.10;;;;;;;19.75;52.06;101623.66;5119948;27;20043;-75
2022/01/18 07:35:56;;;;;;;2.55;1.20;;;;;;;19.70;50.57;101626.34;5114003;27;20038;-75
2022/01/18 07:38:24;;;;;;;5.32;1.52;;;;;;;19.65;50.51;101620.16;5117204;27;20064;-75
2022/01/18 07:40:53;;;;;;;5.15;1.50;;;;;;;19.62;48.72;101619.31;5144345;27;20474;-75
2022/01/18 07:43:22;;;;;;;3.15;1.58;;;;;;;19.47;47.17;101625.66;5095178;27;20437;-75
2022/01/18 07:45:52;;;;;;;6.97;1.90;;;;;;;19.64;47.86;101631.78;5110404;27;20039;-75
2022/01/18 07:48:23;;;;;;;6.13;1.77;;;;;;;19.86;48.36;101640.53;5110502;27;20461;-74
2022/01/18 07:50:53;;;;;;;2.90;1.92;;;;;;;19.80;46.46;101630.75;5111745;27;20039;-75
2022/01/18 07:53:21;;;;;;;4.05;1.70;;;;;;;19.21;47.00;101643.66;5110205;27;20050;-75
2022/01/18 07:55:48;;;;;;;3.45;1.45;;;;;;;18.62;48.42;101637.69;5110177;27;20119;-75
2022/01/18 07:58:16;;;;;;;6.10;2.15;;;;;;;18.35;49.26;101644.84;5110373;27;20458;-74
2022/01/18 08:00:44;;;;;;;5.25;2.85;;;;;;;18.88;49.08;101652.72;5111800;27;20028;-75
2022/01/18 08:03:14;;;;;;;5.43;2.22;;;;;;;19.55;48.82;101655.97;5110123;27;20133;-74
2022/01/18 08:05:42;;;;;;;3.80;1.42;;;;;;;20.12;48.89;101654.59;5110143;27;20042;-75
2022/01/18 08:08:09;;;;;;;4.40;2.10;;;;;;;19.92;48.43;101661.03;5109279;27;20035;-75
2022/01/18 08:10:37;;;;;;;4.70;1.88;;;;;;;19.31;49.01;101667.66;5111665;27;20492;-75
2022/01/18 08:13:05;;;;;;;6.30;2.50;;;;;;;18.79;49.29;101666.13;5111359;27;20496;-75
2022/01/18 08:15:38;;;;;;;7.05;3.05;;;;;;;18.45;50.04;101686.69;5092854;27;20048;-75
2022/01/18 08:18:08;;;;;;;10.52;3.95;;;;;;;18.20;50.83;101685.84;5110803;27;20047;-74
2022/01/18 08:20:37;;;;;;;8.48;3.42;;;;;;;18.06;51.67;101683.16;5111417;27;20051;-74
2022/01/18 08:23:05;;;;;;;10.20;4.20;;;;;;;18.26;51.98;101688.50;5109581;27;20032;-74
2022/01/18 08:25:34;;;;;;;6.50;3.88;;;;;;;18.08;52.19;101688.53;5109754;27;20043;-75
2022/01/18 08:28:02;;;;;;;10.10;3.92;;;;;;;17.69;52.69;101687.63;5109264;27;20108;-74
2022/01/18 08:30:29;;;;;;;6.78;3.60;;;;;;;17.52;52.91;101689.34;5109668;27;20157;-74
2022/01/18 08:32:57;;;;;;;7.63;3.05;;;;;;;17.64;53.00;101686.72;5110491;27;20040;-74
2022/01/18 08:35:25;;;;;;;5.68;1.73;;;;;;;17.83;53.17;101691.19;5110895;27;20131;-75
2022/01/18 08:37:55;;;;;;;8.75;2.47;;;;;;;18.07;53.57;101687.63;5109567;27;20116;-74
2022/01/18 08:40:22;;;;;;;8.38;3.40;;;;;;;18.21;53.04;101677.84;5143718;27;20059;-75
2022/01/18 08:42:50;;;;;;;7.97;3.17;;;;;;;18.05;53.20;101659.16;5109561;27;20531;-74
2022/01/18 08:45:17;;;;;;;8.32;3.78;;;;;;;18.30;53.05;101644.84;5117408;27;20040;-74
2022/01/18 08:47:45;;;;;;;6.53;1.75;;;;;;;18.64;52.67;101633.19;5110203;27;20040;-73
2022/01/18 08:50:13;;;;;;;6.72;2.50;;;;;;;18.35;52.73;101652.84;5128771;27;20131;-74
2022/01/18 08:52:41;;;;;;;8.00;2.65;;;;;;;18.03;53.22;101679.63;5130119;27;20571;-74
2022/01/18 08:55:11;;;;;;;7.10;3.50;;;;;;;17.59;53.96;101696.47;5101740;27;20052;-73
2022/01/18 08:57:39;;;;;;;10.55;4.38;;;;;;;17.17;54.73;101702.59;5097454;27;20036;-73
2022/01/18 09:00:09;;;;;;;9.98;3.72;;;;;;;16.90;55.20;101698.03;5107618;27;20089;-73
2022/01/18 09:02:39;;;;;;;8.77;3.25;;;;;;;16.81;55.52;101705.06;5128973;27;20050;-74
2022/01/18 09:05:07;;;;;;;10.88;2.83;;;;;;;16.69;55.81;101698.81;5116195;27;20127;-74
2022/01/18 09:07:38;;;;;;;6.20;2.15;;;;;;;16.64;55.86;101707.66;5109658;27;20135;-74
2022/01/18 09:10:09;;;;;;;6.50;2.03;;;;;;;16.63;56.08;101692.53;5109870;27;20040;-73
2022/01/18 09:12:39;;;;;;;7.78;2.40;;;;;;;16.63;56.23;101701.44;5109764;27;20499;-73
2022/01/18 09:15:09;;;;;;;3.83;1.75;;;;;;;16.56;56.16;101693.34;5108888;27;20054;-74
2022/01/18 09:17:38;;;;;;;9.77;2.22;;;;;;;16.50;56.22;101677.31;5105505;27;20079;-73
2022/01/18 09:20:09;;;;;;;6.43;1.95;;;;;;;16.31;57.07;101674.53;5102974;27;20496;-74
2022/01/18 09:22:39;;;;;;;5.07;1.77;;;;;;;16.00;57.64;101663.66;5108282;27;20089;-74
2022/01/18 09:25:09;;;;;;;5.82;1.73;;;;;;;15.69;58.70;101659.81;5107669;27;20050;-74
2022/01/18 09:27:38;;;;;;;4.75;2.00;;;;;;;15.54;59.75;101674.81;5109486;27;20039;-73
2022/01/18 09:30:07;;;;;;;6.50;2.60;;;;;;;15.39;60.61;101671.94;5120093;27;20442;-73
2022/01/18 09:32:35;;;;;;;4.95;1.80;;;;;;;15.27;61.19;101669.16;5125704;27;20050;-73
2022/01/18 09:35:03;;;;;;;5.10;2.13;;;;;;;15.08;62.28;101662.72;5111253;27;20047;-73
2022/01/18 09:37:30;;;;;;;6.90;2.83;;;;;;;14.88;62.71;101664.25;5108530;27;20048;-73
2022/01/18 09:39:58;;;;;;;4.82;2.17;;;;;;;14.71;63.18;101657.81;5108940;27;20627;-73
2022/01/18 09:42:32;;;;;;;6.80;2.38;;;;;;;14.63;63.48;101660.41;5107478;27;20073;-73
2022/01/18 09:45:02;;;;;;;4.55;2.80;;;;;;;14.57;64.43;101670.06;5121009;27;20039;-73
2022/01/18 09:47:30;;;;;;;7.30;3.05;;;;;;;14.47;65.90;101674.31;5122980;27;20062;-73
2022/01/18 09:49:59;;;;;;;9.73;4.82;;;;;;;14.46;66.25;101676.97;5118145;27;20036;-73
2022/01/18 09:52:27;;;;;;;8.98;3.92;;;;;;;14.50;66.95;101678.81;5096862;27;20959;-72
2022/01/18 09:54:54;;;;;;;8.50;4.18;;;;;;;14.42;67.69;101675.13;5109882;27;20476;-73
2022/01/18 09:57:22;;;;;;;5.55;2.95;;;;;;;14.45;68.41;101664.53;5109066;27;20067;-72
2022/01/18 09:59:49;;;;;;;6.75;2.72;;;;;;;14.39;68.78;101646.75;5115572;27;20064;-73
2022/01/18 10:02:19;;;;;;;8.85;3.15;;;;;;;14.52;69.35;101643.41;5108502;27;20039;-72
2022/01/18 10:04:48;;;;;;;11.02;3.80;;;;;;;14.80;69.68;101631.34;5113201;27;20097;-73
2022/01/18 10:07:16;;;;;;;14.27;3.30;;;;;;;15.08;69.71;101625.50;5112409;27;20089;-72
2022/01/18 10:09:43;;;;;;;9.45;4.00;;;;;;;15.26;69.84;101619.47;5106375;27;20092;-73
2022/01/18 10:12:13;;;;;;;11.80;6.05;;;;;;;15.32;69.97;101629.28;5111750;27;20048;-73
2022/01/18 10:14:43;;;;;;;13.35;4.32;;;;;;;15.26;70.29;101643.41;5111725;27;20152;-73
2022/01/18 10:17:12;;;;;;;13.40;4.00;;;;;;;15.18;70.48;101657.50;5108609;27;20051;-73
2022/01/18 10:19:50;;;;;;;9.77;3.50;;;;;;;15.09;70.86;101647.66;5110379;27;20044;-73
2022/01/18 10:22:20;;;;;;;10.70;2.53;;;;;;;14.81;71.24;101659.72;5111224;27;20170;-73
2022/01/18 10:24:48;;;;;;;11.68;3.83;;;;;;;14.41;71.34;101668.94;5111389;27;20130;-74
2022/01/18 10:27:16;;;;;;;6.82;3.22;;;;;;;14.02;72.21;101669.19;5127670;27;20044;-77
2022/01/18 10:29:45;;;;;;;9.52;2.90;;;;;;;13.65;72.76;101685.38;5091560;28;20035;-78
2022/01/18 10:32:18;;;;;;;11.05;3.53;;;;;;;13.25;73.80;101681.97;5119004;27;20047;-77
2022/01/18 10:35:08;;;;;;;8.15;3.15;;;;;;;13.06;74.73;101678.00;5118078;27;20074;-74
2022/01/18 10:37:38;;;;;;;26.95;6.82;;;;;;;13.04;75.15;101677.09;5123204;27;20063;-75
2022/01/18 10:40:09;;;;;;;13.70;4.30;;;;;;;13.03;75.21;101674.41;5120659;27;20048;-75
2022/01/18 10:42:47;;;;;;;14.07;6.32;;;;;;;13.14;75.10;101672.88;5111245;27;20387;-75
2022/01/18 10:45:22;;;;;;;22.98;11.82;;;;;;;13.21;75.06;101665.94;5117613;27;20047;-75
2022/01/18 10:47:52;;;;;;;12.80;4.88;;;;;;;13.21;74.99;101666.84;5166264;27;20559;-75
2022/01/18 10:50:21;;;;;;;19.42;4.85;;;;;;;13.12;75.12;101661.34;5118460;27;20050;-75
2022/01/18 10:52:52;;;;;;;17.13;5.20;;;;;;;13.07;75.37;101661.22;5101740;27;20035;-76
2022/01/18 10:55:22;;;;;;;16.15;3.78;;;;;;;13.03;75.08;101661.16;5110910;27;20043;-75
2022/01/18 10:57:51;;;;;;;46.65;14.82;;;;;;;12.96;75.26;101667.19;5114331;27;20118;-75
2022/01/18 11:00:21;;;;;;;38.13;14.13;;;;;;;12.89;75.40;101673.22;5111007;27;20162;-74
2022/01/18 11:02:51;;;;;;;21.48;8.45;;;;;;;12.87;75.26;101673.19;5110741;27;20440;-74
2022/01/18 11:05:21;;;;;;;19.35;10.07;;;;;;;12.84;75.24;101670.47;5110336;27;20044;-74
2022/01/18 11:07:50;;;;;;;16.50;6.65;;;;;;;12.88;75.04;101669.69;5112479;27;20118;-75
2022/01/18 11:10:19;;;;;;;20.85;10.10;;;;;;;12.96;74.93;101672.50;5110446;27;20122;-76
2022/01/18 11:12:52;;;;;;;23.40;14.15;;;;;;;12.99;74.89;101664.63;5125348;27;20390;-77
2022/01/18 11:15:22;;;;;;;12.95;4.97;;;;;;;12.95;74.89;101655.69;5126858;27;20100;-75
2022/01/18 11:17:57;;;;;;;15.35;4.30;;;;;;;12.97;74.70;101647.78;5119806;27;20177;-75
2022/01/18 11:20:27;;;;;;;21.58;9.23;;;;;;;13.04;74.51;101652.34;5111415;27;20134;-75
2022/01/18 11:22:56;;;;;;;22.10;7.78;;;;;;;13.10;74.40;101652.47;5111893;27;20115;-75
2022/01/18 11:25:24;;;;;;;43.55;14.65;;;;;;;13.14;74.22;101656.97;5112177;27;20035;-75
2022/01/18 11:28:13;;;;;;;21.20;7.22;;;;;;;13.18;74.25;101657.94;5112079;27;20051;-75
2022/01/18 11:30:44;;;;;;;24.77;11.80;;;;;;;13.09;74.01;101653.31;5109783;27;20048;-75
2022/01/18 11:33:14;;;;;;;26.33;10.52;;;;;;;13.03;73.96;101655.84;5111503;28;20096;-74
2022/01/18 11:35:49;;;;;;;33.75;14.55;;;;;;;12.99;73.97;101648.72;5111528;27;20092;-74
2022/01/18 11:38:24;;;;;;;23.98;11.20;;;;;;;12.94;73.96;101653.00;5143849;27;20043;-74
2022/01/18 11:40:53;;;;;;;18.13;9.57;;;;;;;12.91;73.27;101652.97;5109720;27;20040;-75
2022/01/18 11:43:37;;;;;;;21.13;9.23;;;;;;;12.85;72.65;101666.97;5128649;27;20040;-74
2022/01/18 11:46:23;;;;;;;19.77;9.38;;;;;;;12.89;72.76;101666.16;5120482;27;20035;-75
2022/01/18 11:49:00;;;;;;;20.83;8.35;;;;;;;12.90;72.94;101661.75;5150885;27;20053;-74
2022/01/18 11:51:38;;;;;;;17.25;5.72;;;;;;;12.88;72.85;101663.47;5097636;27;20035;-74
2022/01/18 11:54:23;;;;;;;24.77;7.30;;;;;;;12.87;72.80;101664.34;5125995;27;20062;-73
2022/01/18 11:56:51;;;;;;;16.65;5.75;;;;;;;12.82;71.65;101666.00;5129901;27;20705;-73
2022/01/18 11:59:21;;;;;;;15.70;4.97;;;;;;;12.79;72.05;101664.19;5121066;27;20126;-75
2022/01/18 12:01:51;;;;;;;14.85;5.13;;;;;;;12.78;72.15;101662.41;5104100;27;20039;-74
2022/01/18 12:05:07;;;;;;;15.13;4.55;;;;;;;12.85;71.85;101663.44;5118822;27;20047;-74
2022/01/18 12:07:58;;;;;;;10.45;3.97;;;;;;;12.84;71.03;101670.47;5106014;27;20122;-74
2022/01/18 12:10:47;;;;;;;17.13;5.53;;;;;;;12.87;70.73;101677.59;5111989;27;20128;-74
2022/01/18 12:13:35;;;;;;;23.58;6.60;;;;;;;12.93;70.31;101670.66;5126664;27;20053;-73
2022/01/18 12:16:09;;;;;;;16.77;6.25;;;;;;;12.95;70.11;101662.75;5110420;27;20431;-74
2022/01/18 12:18:50;;;;;;;15.77;4.32;;;;;;;12.88;68.29;101680.28;5122520;27;20399;-73
2022/01/18 12:21:21;;;;;;;18.55;5.93;;;;;;;12.87;67.94;101664.34;5121050;27;20044;-73